createdAt,value
2019-02-03T00:00:33.424Z,49.18
2019-02-03T00:01:11.677Z,48.40
2019-02-03T00:01:44.750Z,47.50
2019-02-03T00:02:17.516Z,43.73
2019-02-03T00:02:50.034Z,48.55
2019-02-03T00:03:22.650Z,49.95
2019-02-03T00:03:55.524Z,49.25
2019-02-03T00:04:28.726Z,47.45
2019-02-03T00:05:01.507Z,44.90
2019-02-03T00:05:34.567Z,48.83
2019-02-03T00:06:07.442Z,50.80
2019-02-03T00:06:39.922Z,53.83
2019-02-03T00:07:12.696Z,52.38
2019-02-03T00:07:45.174Z,49.18
2019-02-03T00:08:17.710Z,47.70
2019-02-03T00:08:50.191Z,45.73
2019-02-03T00:09:22.911Z,51.30
2019-02-03T00:09:55.390Z,49.50
2019-02-03T00:10:28.181Z,45.95
2019-02-03T00:11:01.033Z,42.53
2019-02-03T00:11:33.910Z,42.62
2019-02-03T00:12:07.328Z,45.48
2019-02-03T00:12:39.826Z,49.77
2019-02-03T00:13:12.657Z,42.58
2019-02-03T00:13:45.132Z,52.70
2019-02-03T00:14:17.607Z,49.55
2019-02-03T00:14:50.464Z,49.13
2019-02-03T00:15:22.955Z,43.15
2019-02-03T00:15:55.559Z,41.35
2019-02-03T00:16:28.623Z,48.33
2019-02-03T00:17:01.136Z,41.58
2019-02-03T00:17:33.606Z,49.13
2019-02-03T00:18:06.111Z,44.40
2019-02-03T00:18:38.907Z,47.62
2019-02-03T00:19:11.688Z,43.63
2019-02-03T00:19:44.173Z,39.75
2019-02-03T00:20:16.660Z,45.88
2019-02-03T00:20:49.131Z,48.65
2019-02-03T00:21:21.623Z,45.03
2019-02-03T00:21:54.319Z,42.78
2019-02-03T00:22:26.782Z,45.12
2019-02-03T00:22:59.595Z,42.35
2019-02-03T00:23:32.199Z,44.08
2019-02-03T00:24:05.416Z,38.70
2019-02-03T00:24:37.931Z,43.13
2019-02-03T00:25:10.524Z,46.42
2019-02-03T00:25:43.115Z,39.83
2019-02-03T00:26:17.701Z,40.40
2019-02-03T00:26:49.906Z,43.20
2019-02-03T00:27:22.411Z,43.25
2019-02-03T00:27:55.162Z,37.50
2019-02-03T00:28:27.791Z,42.93
2019-02-03T00:29:00.266Z,40.50
2019-02-03T00:29:32.749Z,38.60
2019-02-03T00:30:06.638Z,40.58
2019-02-03T00:30:39.126Z,44.00
2019-02-03T00:31:11.913Z,39.98
2019-02-03T00:31:44.679Z,41.68
2019-02-03T00:32:17.155Z,41.28
2019-02-03T00:32:51.708Z,37.53
2019-02-03T00:33:24.113Z,38.88
2019-02-03T00:33:56.623Z,43.05
2019-02-03T00:34:29.120Z,38.70
2019-02-03T00:35:01.622Z,39.45
2019-02-03T00:35:34.711Z,39.85
2019-02-03T00:36:07.836Z,45.12
2019-02-03T00:36:40.610Z,42.15
2019-02-03T00:37:16.163Z,41.35
2019-02-03T00:37:47.810Z,43.83
2019-02-03T00:38:23.427Z,31.77
2019-02-03T00:38:54.600Z,39.05
2019-02-03T00:39:27.103Z,39.48
2019-02-03T00:39:59.566Z,38.20
2019-02-03T00:40:32.132Z,42.70
2019-02-03T00:41:04.763Z,37.55
2019-02-03T00:41:37.248Z,39.40
2019-02-03T00:42:10.140Z,36.20
2019-02-03T00:42:42.967Z,41.00
2019-02-03T00:43:15.903Z,34.10
2019-02-03T00:43:48.395Z,34.43
2019-02-03T00:44:20.880Z,38.02
2019-02-03T00:44:53.376Z,34.45
2019-02-03T00:45:25.856Z,38.80
2019-02-03T00:45:58.331Z,35.90
2019-02-03T00:46:31.221Z,35.88
2019-02-03T00:47:03.702Z,34.43
2019-02-03T00:47:36.496Z,37.80
2019-02-03T00:48:08.966Z,32.35
2019-02-03T00:48:41.797Z,35.95
2019-02-03T00:49:14.295Z,36.23
2019-02-03T00:49:47.360Z,40.65
2019-02-03T00:50:20.526Z,35.68
2019-02-03T00:50:53.032Z,35.20
2019-02-03T00:51:25.740Z,34.23
2019-02-03T00:51:58.271Z,34.58
2019-02-03T00:52:30.771Z,34.33
2019-02-03T00:53:03.460Z,33.05
2019-02-03T00:53:35.941Z,34.13
2019-02-03T00:54:08.436Z,33.58
2019-02-03T00:54:40.942Z,32.33
2019-02-03T00:55:14.647Z,37.28
2019-02-03T00:55:47.154Z,35.80
2019-02-03T00:56:19.924Z,36.85
2019-02-03T00:56:52.424Z,36.88
2019-02-03T00:57:25.598Z,34.53
2019-02-03T00:57:58.087Z,43.60
2019-02-03T00:58:30.589Z,36.05
2019-02-03T00:59:03.181Z,33.45
2019-02-03T00:59:35.672Z,37.10
2019-02-03T01:00:09.918Z,37.67
2019-02-03T01:00:42.423Z,29.05
2019-02-03T01:01:14.893Z,37.40
2019-02-03T01:01:47.389Z,39.10
2019-02-03T01:02:19.862Z,39.10
2019-02-03T01:02:52.568Z,37.80
2019-02-03T01:03:26.443Z,37.83
2019-02-03T01:03:59.331Z,35.78
2019-02-03T01:04:31.822Z,35.23
2019-02-03T01:05:06.720Z,36.35
2019-02-03T01:05:39.631Z,35.78
2019-02-03T01:06:12.076Z,36.17
2019-02-03T01:06:44.551Z,35.58
2019-02-03T01:07:27.155Z,35.10
2019-02-03T01:07:51.603Z,37.85
2019-02-03T01:08:24.539Z,36.95
2019-02-03T01:08:57.516Z,36.88
2019-02-03T01:09:29.990Z,36.08
2019-02-03T01:10:02.689Z,40.80
2019-02-03T01:10:35.176Z,35.10
2019-02-03T01:11:07.671Z,36.90
2019-02-03T01:11:40.167Z,35.30
2019-02-03T01:12:12.658Z,33.20
2019-02-03T01:12:45.123Z,38.67
2019-02-03T01:13:17.710Z,38.13
2019-02-03T01:13:50.236Z,36.25
2019-02-03T01:14:22.729Z,40.38
2019-02-03T01:14:55.215Z,32.48
2019-02-03T01:15:27.707Z,35.30
2019-02-03T01:16:00.199Z,36.65
2019-02-03T01:16:33.084Z,40.85
2019-02-03T01:17:05.666Z,34.13
2019-02-03T01:17:38.952Z,40.55
2019-02-03T01:18:11.430Z,31.37
2019-02-03T01:18:44.318Z,35.43
2019-02-03T01:19:16.819Z,44.08
2019-02-03T01:19:49.596Z,35.50
2019-02-03T01:20:22.328Z,30.57
2019-02-03T01:20:54.799Z,33.15
2019-02-03T01:21:27.278Z,40.95
2019-02-03T01:22:00.041Z,30.85
2019-02-03T01:22:32.523Z,39.13
2019-02-03T01:23:05.388Z,35.10
2019-02-03T01:23:38.138Z,37.80
2019-02-03T01:24:10.634Z,37.15
2019-02-03T01:24:43.421Z,32.05
2019-02-03T01:25:16.042Z,34.27
2019-02-03T01:25:48.527Z,38.75
2019-02-03T01:26:21.012Z,34.58
2019-02-03T01:26:53.506Z,41.13
2019-02-03T01:27:25.993Z,35.95
2019-02-03T01:27:59.447Z,36.13
2019-02-03T01:28:32.201Z,34.65
2019-02-03T01:29:05.379Z,34.67
2019-02-03T01:29:37.875Z,35.70
2019-02-03T01:30:18.804Z,35.33
2019-02-03T01:30:51.297Z,37.83
2019-02-03T01:31:24.062Z,33.35
2019-02-03T01:31:56.567Z,36.63
2019-02-03T01:32:29.643Z,38.00
2019-02-03T01:33:02.790Z,32.17
2019-02-03T01:33:35.275Z,38.17
2019-02-03T01:34:08.121Z,37.63
2019-02-03T01:34:40.604Z,44.58
2019-02-03T01:35:13.308Z,37.85
2019-02-03T01:35:45.834Z,35.08
2019-02-03T01:36:18.324Z,33.55
2019-02-03T01:36:51.269Z,38.65
2019-02-03T01:37:23.750Z,35.08
2019-02-03T01:37:56.244Z,34.53
2019-02-03T01:38:29.530Z,37.85
2019-02-03T01:39:02.115Z,39.23
2019-02-03T01:39:34.597Z,46.30
2019-02-03T01:40:09.767Z,39.90
2019-02-03T01:40:42.265Z,38.17
2019-02-03T01:41:14.793Z,35.15
2019-02-03T01:41:47.292Z,39.73
2019-02-03T01:42:19.769Z,44.10
2019-02-03T01:42:52.247Z,37.03
2019-02-03T01:43:25.586Z,35.78
2019-02-03T01:43:58.263Z,39.42
2019-02-03T01:44:31.110Z,35.28
2019-02-03T01:45:06.671Z,43.65
2019-02-03T01:45:39.510Z,35.30
2019-02-03T01:46:12.294Z,36.85
2019-02-03T01:46:44.816Z,41.63
2019-02-03T01:47:17.294Z,42.80
2019-02-03T01:47:49.795Z,36.17
2019-02-03T01:48:22.399Z,33.23
2019-02-03T01:48:55.269Z,40.10
2019-02-03T01:49:27.760Z,38.80
2019-02-03T01:50:00.264Z,35.83
2019-02-03T01:50:32.774Z,31.30
2019-02-03T01:51:05.537Z,37.17
2019-02-03T01:51:38.409Z,39.18
2019-02-03T01:52:11.194Z,40.05
2019-02-03T01:52:43.929Z,36.70
2019-02-03T01:53:17.143Z,37.67
2019-02-03T01:53:49.621Z,36.53
2019-02-03T01:54:22.110Z,40.52
2019-02-03T01:54:54.635Z,44.98
2019-02-03T01:55:27.260Z,32.95
2019-02-03T01:55:59.809Z,39.10
2019-02-03T01:56:32.656Z,37.17
2019-02-03T01:57:05.142Z,35.63
2019-02-03T01:57:37.838Z,44.35
2019-02-03T01:58:10.615Z,34.98
2019-02-03T01:58:43.498Z,40.33
2019-02-03T01:59:16.001Z,35.13
2019-02-03T01:59:48.488Z,32.90
2019-02-03T02:00:23.544Z,35.52
2019-02-03T02:00:56.029Z,41.02
2019-02-03T02:01:28.489Z,34.03
2019-02-03T02:02:01.248Z,37.50
2019-02-03T02:02:34.168Z,42.98
2019-02-03T02:03:06.673Z,34.05
2019-02-03T02:03:39.161Z,37.53
2019-02-03T02:04:12.303Z,37.58
2019-02-03T02:04:45.077Z,35.55
2019-02-03T02:05:17.746Z,39.35
2019-02-03T02:05:50.612Z,40.85
2019-02-03T02:06:23.104Z,39.63
2019-02-03T02:06:55.854Z,35.20
2019-02-03T02:07:28.364Z,31.75
2019-02-03T02:08:00.849Z,37.67
2019-02-03T02:08:33.368Z,37.88
2019-02-03T02:09:07.465Z,38.90
2019-02-03T02:09:39.946Z,37.10
2019-02-03T02:10:15.652Z,43.50
2019-02-03T02:10:48.134Z,34.67
2019-02-03T02:11:20.818Z,38.42
2019-02-03T02:11:53.320Z,35.88
2019-02-03T02:12:26.210Z,36.58
2019-02-03T02:12:59.354Z,40.88
2019-02-03T02:13:31.838Z,37.17
2019-02-03T02:14:04.364Z,36.45
2019-02-03T02:14:36.852Z,38.45
2019-02-03T02:15:11.685Z,38.70
2019-02-03T02:15:44.174Z,37.25
2019-02-03T02:16:16.926Z,38.45
2019-02-03T02:16:49.427Z,36.73
2019-02-03T02:17:22.327Z,40.95
2019-02-03T02:17:54.891Z,42.05
2019-02-03T02:18:27.428Z,34.40
2019-02-03T02:18:59.899Z,35.00
2019-02-03T02:19:32.406Z,38.80
2019-02-03T02:20:06.170Z,36.48
2019-02-03T02:20:39.017Z,41.68
2019-02-03T02:21:11.791Z,35.95
2019-02-03T02:21:44.656Z,33.35
2019-02-03T02:22:17.130Z,38.33
2019-02-03T02:22:49.986Z,35.28
2019-02-03T02:23:22.916Z,36.90
2019-02-03T02:23:55.408Z,33.90
2019-02-03T02:24:28.202Z,34.95
2019-02-03T02:25:01.379Z,41.55
2019-02-03T02:25:33.872Z,36.25
2019-02-03T02:26:06.855Z,35.30
2019-02-03T02:26:39.350Z,36.80
2019-02-03T02:27:11.851Z,37.40
2019-02-03T02:27:44.327Z,34.43
2019-02-03T02:28:16.808Z,34.23
2019-02-03T02:28:49.624Z,31.80
2019-02-03T02:29:22.498Z,33.65
2019-02-03T02:29:55.006Z,36.25
2019-02-03T02:30:27.520Z,29.65
2019-02-03T02:30:59.998Z,37.17
2019-02-03T02:31:32.493Z,37.08
2019-02-03T02:32:04.987Z,34.73
2019-02-03T02:32:37.460Z,33.10
2019-02-03T02:33:10.236Z,34.08
2019-02-03T02:33:42.728Z,37.73
2019-02-03T02:34:15.547Z,37.60
2019-02-03T02:34:48.015Z,35.55
2019-02-03T02:35:20.872Z,35.00
2019-02-03T02:35:53.667Z,32.58
2019-02-03T02:36:26.461Z,35.20
2019-02-03T02:36:59.225Z,30.30
2019-02-03T02:37:31.724Z,29.80
2019-02-03T02:38:06.871Z,31.95
2019-02-03T02:38:39.163Z,30.02
2019-02-03T02:39:11.663Z,35.83
2019-02-03T02:39:44.156Z,27.75
2019-02-03T02:40:18.745Z,32.30
2019-02-03T02:40:52.065Z,32.15
2019-02-03T02:41:24.598Z,31.07
2019-02-03T02:41:57.078Z,32.33
2019-02-03T02:42:29.555Z,30.00
2019-02-03T02:43:02.032Z,35.60
2019-02-03T02:43:34.502Z,39.08
2019-02-03T02:44:06.982Z,35.85
2019-02-03T02:44:39.468Z,31.55
2019-02-03T02:45:12.155Z,30.72
2019-02-03T02:45:44.999Z,29.40
2019-02-03T02:46:17.483Z,28.07
2019-02-03T02:46:50.029Z,31.97
2019-02-03T02:47:22.515Z,29.90
2019-02-03T02:47:55.717Z,34.20
2019-02-03T02:48:28.464Z,34.43
2019-02-03T02:49:01.635Z,33.90
2019-02-03T02:49:34.134Z,33.23
2019-02-03T02:50:09.974Z,30.75
2019-02-03T02:50:43.864Z,30.40
2019-02-03T02:51:17.036Z,28.80
2019-02-03T02:51:52.359Z,32.70
2019-02-03T02:52:25.438Z,29.35
2019-02-03T02:52:57.921Z,29.27
2019-02-03T02:53:30.394Z,29.07
2019-02-03T02:54:02.880Z,31.52
2019-02-03T02:54:35.962Z,29.02
2019-02-03T02:55:08.674Z,29.60
2019-02-03T02:55:41.497Z,36.88
2019-02-03T02:56:14.005Z,32.67
2019-02-03T02:56:46.804Z,28.87
2019-02-03T02:57:19.615Z,27.80
2019-02-03T02:57:52.104Z,31.82
2019-02-03T02:58:24.599Z,30.72
2019-02-03T02:58:57.098Z,31.73
2019-02-03T02:59:29.600Z,29.55
2019-02-03T03:00:02.073Z,32.38
2019-02-03T03:00:34.673Z,27.98
2019-02-03T03:01:07.138Z,30.85
2019-02-03T03:01:40.356Z,28.70
2019-02-03T03:02:12.832Z,31.93
2019-02-03T03:02:45.930Z,29.77
2019-02-03T03:03:18.392Z,32.30
2019-02-03T03:03:51.181Z,30.32
2019-02-03T03:04:23.649Z,30.17
2019-02-03T03:04:56.144Z,29.92
2019-02-03T03:05:28.618Z,31.95
2019-02-03T03:06:01.512Z,31.27
2019-02-03T03:06:33.995Z,28.52
2019-02-03T03:07:06.473Z,28.47
2019-02-03T03:07:38.960Z,36.80
2019-02-03T03:08:19.115Z,30.05
2019-02-03T03:08:45.766Z,32.13
2019-02-03T03:09:18.275Z,35.23
2019-02-03T03:09:50.766Z,34.85
2019-02-03T03:10:23.365Z,29.42
2019-02-03T03:10:55.863Z,29.80
2019-02-03T03:11:28.723Z,30.68
2019-02-03T03:12:01.333Z,31.80
2019-02-03T03:12:33.806Z,28.90
2019-02-03T03:13:06.602Z,33.88
2019-02-03T03:13:39.803Z,30.15
2019-02-03T03:14:12.282Z,31.90
2019-02-03T03:14:44.768Z,28.87
2019-02-03T03:15:18.956Z,29.98
2019-02-03T03:15:51.476Z,30.65
2019-02-03T03:16:24.522Z,29.35
2019-02-03T03:16:56.995Z,27.67
2019-02-03T03:17:30.535Z,31.48
2019-02-03T03:18:03.129Z,28.45
2019-02-03T03:18:35.616Z,34.40
2019-02-03T03:19:08.146Z,32.53
2019-02-03T03:19:40.642Z,29.57
2019-02-03T03:20:14.769Z,30.82
2019-02-03T03:20:47.609Z,29.95
2019-02-03T03:21:20.354Z,30.23
2019-02-03T03:21:52.848Z,32.85
2019-02-03T03:22:26.023Z,29.77
2019-02-03T03:22:58.536Z,30.27
2019-02-03T03:23:31.023Z,30.55
2019-02-03T03:24:03.740Z,33.90
2019-02-03T03:24:36.391Z,27.85
2019-02-03T03:25:11.662Z,30.68
2019-02-03T03:25:44.460Z,30.20
2019-02-03T03:26:17.504Z,33.35
2019-02-03T03:26:50.354Z,28.05
2019-02-03T03:27:23.142Z,29.00
2019-02-03T03:27:55.608Z,29.12
2019-02-03T03:28:28.447Z,34.15
2019-02-03T03:29:00.938Z,30.05
2019-02-03T03:29:34.042Z,34.43
2019-02-03T03:30:16.597Z,28.45
2019-02-03T03:30:49.089Z,30.55
2019-02-03T03:31:21.574Z,32.50
2019-02-03T03:31:54.343Z,31.75
2019-02-03T03:32:26.810Z,29.18
2019-02-03T03:32:59.731Z,30.45
2019-02-03T03:33:32.843Z,32.13
2019-02-03T03:34:05.647Z,28.07
2019-02-03T03:34:38.855Z,29.30
2019-02-03T03:35:11.750Z,28.30
2019-02-03T03:35:44.575Z,32.28
2019-02-03T03:36:17.429Z,29.60
2019-02-03T03:36:50.277Z,29.00
2019-02-03T03:37:22.746Z,30.25
2019-02-03T03:37:55.247Z,37.20
2019-02-03T03:38:32.233Z,31.10
2019-02-03T03:39:04.082Z,35.55
2019-02-03T03:39:36.993Z,28.00
2019-02-03T03:40:10.202Z,27.20
2019-02-03T03:40:42.678Z,25.85
2019-02-03T03:41:15.466Z,30.75
2019-02-03T03:41:47.964Z,27.62
2019-02-03T03:42:20.448Z,29.42
2019-02-03T03:42:53.024Z,29.18
2019-02-03T03:43:25.857Z,30.15
2019-02-03T03:43:58.361Z,29.42
2019-02-03T03:44:30.855Z,26.33
2019-02-03T03:45:04.650Z,26.45
2019-02-03T03:45:37.137Z,26.02
2019-02-03T03:46:10.005Z,27.35
2019-02-03T03:46:42.527Z,31.40
2019-02-03T03:47:15.520Z,32.33
2019-02-03T03:47:48.021Z,29.92
2019-02-03T03:48:20.914Z,30.60
2019-02-03T03:48:53.408Z,30.40
2019-02-03T03:49:26.383Z,27.70
2019-02-03T03:49:58.864Z,31.12
2019-02-03T03:50:31.702Z,26.00
2019-02-03T03:51:04.456Z,30.20
2019-02-03T03:51:36.943Z,30.80
2019-02-03T03:52:09.446Z,26.62
2019-02-03T03:52:42.614Z,29.98
2019-02-03T03:53:15.396Z,27.20
2019-02-03T03:53:48.289Z,26.85
2019-02-03T03:54:20.882Z,26.15
2019-02-03T03:54:53.355Z,30.35
2019-02-03T03:55:26.114Z,27.70
2019-02-03T03:55:58.685Z,29.05
2019-02-03T03:56:31.551Z,27.95
2019-02-03T03:57:04.032Z,28.52
2019-02-03T03:57:36.550Z,29.67
2019-02-03T03:58:09.059Z,30.57
2019-02-03T03:58:41.913Z,29.23
2019-02-03T03:59:14.422Z,30.77
2019-02-03T03:59:47.305Z,35.40
2019-02-03T04:00:21.996Z,30.45
2019-02-03T04:00:55.175Z,35.43
2019-02-03T04:01:27.647Z,27.60
2019-02-03T04:02:00.443Z,28.95
2019-02-03T04:02:33.415Z,26.35
2019-02-03T04:03:05.930Z,30.00
2019-02-03T04:03:38.789Z,25.70
2019-02-03T04:04:11.699Z,28.98
2019-02-03T04:04:44.806Z,32.63
2019-02-03T04:05:17.400Z,28.98
2019-02-03T04:05:50.289Z,29.02
2019-02-03T04:06:23.129Z,30.43
2019-02-03T04:06:55.900Z,26.50
2019-02-03T04:07:28.366Z,29.82
2019-02-03T04:08:00.851Z,27.70
2019-02-03T04:08:44.561Z,28.38
2019-02-03T04:09:09.256Z,32.33
2019-02-03T04:09:42.138Z,28.52
2019-02-03T04:10:15.810Z,27.13
2019-02-03T04:10:48.756Z,28.60
2019-02-03T04:11:21.366Z,31.70
2019-02-03T04:11:53.822Z,29.32
2019-02-03T04:12:26.332Z,30.80
2019-02-03T04:12:59.246Z,27.82
2019-02-03T04:13:32.471Z,29.15
2019-02-03T04:14:05.087Z,29.32
2019-02-03T04:14:37.857Z,26.70
2019-02-03T04:15:12.438Z,30.48
2019-02-03T04:15:45.641Z,29.37
2019-02-03T04:16:18.126Z,27.30
2019-02-03T04:16:51.096Z,35.00
2019-02-03T04:17:24.212Z,32.67
2019-02-03T04:17:56.695Z,27.52
2019-02-03T04:18:29.620Z,28.83
2019-02-03T04:19:02.158Z,28.98
2019-02-03T04:19:34.675Z,34.05
2019-02-03T04:20:14.019Z,28.00
2019-02-03T04:20:46.519Z,32.67
2019-02-03T04:21:19.348Z,33.33
2019-02-03T04:21:52.132Z,33.23
2019-02-03T04:22:24.617Z,29.92
2019-02-03T04:22:57.101Z,30.72
2019-02-03T04:23:29.570Z,30.95
2019-02-03T04:24:02.071Z,28.02
2019-02-03T04:24:34.582Z,30.65
2019-02-03T04:25:07.146Z,30.12
2019-02-03T04:25:39.635Z,27.32
2019-02-03T04:26:12.396Z,34.50
2019-02-03T04:26:44.942Z,30.35
2019-02-03T04:27:17.789Z,31.57
2019-02-03T04:27:50.285Z,31.07
2019-02-03T04:28:22.752Z,28.47
2019-02-03T04:28:55.225Z,29.85
2019-02-03T04:29:27.919Z,30.15
2019-02-03T04:30:00.403Z,28.38
2019-02-03T04:30:33.710Z,34.60
2019-02-03T04:31:06.336Z,31.05
2019-02-03T04:31:38.828Z,30.45
2019-02-03T04:32:11.824Z,37.78
2019-02-03T04:32:44.319Z,35.58
2019-02-03T04:33:16.810Z,31.05
2019-02-03T04:33:49.622Z,31.20
2019-02-03T04:34:22.092Z,33.48
2019-02-03T04:34:54.566Z,32.45
2019-02-03T04:35:27.059Z,28.10
2019-02-03T04:35:59.860Z,35.48
2019-02-03T04:36:32.340Z,31.45
2019-02-03T04:37:04.819Z,32.13
2019-02-03T04:37:37.407Z,34.95
2019-02-03T04:38:10.217Z,27.60
2019-02-03T04:38:43.043Z,30.15
2019-02-03T04:39:15.519Z,32.83
2019-02-03T04:39:48.293Z,33.53
2019-02-03T04:40:21.151Z,32.70
2019-02-03T04:40:54.160Z,30.97
2019-02-03T04:41:26.687Z,31.73
2019-02-03T04:41:59.584Z,33.63
2019-02-03T04:42:32.068Z,35.17
2019-02-03T04:43:04.834Z,37.28
2019-02-03T04:43:37.325Z,31.12
2019-02-03T04:44:10.090Z,30.90
2019-02-03T04:44:42.886Z,32.83
2019-02-03T04:45:16.251Z,33.20
2019-02-03T04:45:48.988Z,29.32
2019-02-03T04:46:21.478Z,37.85
2019-02-03T04:46:54.277Z,35.43
2019-02-03T04:47:27.216Z,35.08
2019-02-03T04:47:59.699Z,36.17
2019-02-03T04:48:32.780Z,35.38
2019-02-03T04:49:05.271Z,40.90
2019-02-03T04:49:37.764Z,33.90
2019-02-03T04:50:11.140Z,33.88
2019-02-03T04:50:44.007Z,37.85
2019-02-03T04:51:16.490Z,36.88
2019-02-03T04:51:48.983Z,37.80
2019-02-03T04:52:21.514Z,41.18
2019-02-03T04:52:54.279Z,40.05
2019-02-03T04:53:27.412Z,36.70
2019-02-03T04:54:00.187Z,33.42
2019-02-03T04:54:32.967Z,38.45
2019-02-03T04:55:06.969Z,41.77
2019-02-03T04:55:39.770Z,40.45
2019-02-03T04:56:12.280Z,36.20
2019-02-03T04:56:44.769Z,44.98
2019-02-03T04:57:17.242Z,40.28
2019-02-03T04:57:49.861Z,38.92
2019-02-03T04:58:22.342Z,35.73
2019-02-03T04:58:55.109Z,40.78
2019-02-03T04:59:27.589Z,34.55
2019-02-03T05:00:00.099Z,40.75
2019-02-03T05:00:32.866Z,38.53
2019-02-03T05:01:05.342Z,39.83
2019-02-03T05:01:37.822Z,42.38
2019-02-03T05:02:10.680Z,41.48
2019-02-03T05:02:43.554Z,50.23
2019-02-03T05:03:16.063Z,42.40
2019-02-03T05:03:48.811Z,48.23
2019-02-03T05:04:21.332Z,38.15
2019-02-03T05:04:53.824Z,43.42
2019-02-03T05:05:26.325Z,36.45
2019-02-03T05:05:59.307Z,42.17
2019-02-03T05:06:31.898Z,45.90
2019-02-03T05:07:05.182Z,47.75
2019-02-03T05:07:37.976Z,42.40
2019-02-03T05:08:10.471Z,41.73
2019-02-03T05:08:42.996Z,44.40
2019-02-03T05:09:15.483Z,40.12
2019-02-03T05:09:47.979Z,41.15
2019-02-03T05:10:20.494Z,42.95
2019-02-03T05:10:52.958Z,42.25
2019-02-03T05:11:25.454Z,41.60
2019-02-03T05:11:58.481Z,44.67
2019-02-03T05:12:30.980Z,40.85
2019-02-03T05:13:03.486Z,46.83
2019-02-03T05:13:35.983Z,48.17
2019-02-03T05:14:08.794Z,39.65
2019-02-03T05:14:41.886Z,40.10
2019-02-03T05:15:16.664Z,46.23
2019-02-03T05:15:49.144Z,45.90
2019-02-03T05:16:21.638Z,43.75
2019-02-03T05:16:54.117Z,46.90
2019-02-03T05:17:26.802Z,50.23
2019-02-03T05:17:59.341Z,45.20
2019-02-03T05:18:32.169Z,44.23
2019-02-03T05:19:04.642Z,38.28
2019-02-03T05:19:37.154Z,40.63
2019-02-03T05:20:11.495Z,42.93
2019-02-03T05:20:44.095Z,43.60
2019-02-03T05:21:16.529Z,43.68
2019-02-03T05:21:49.803Z,43.90
2019-02-03T05:22:22.273Z,38.08
2019-02-03T05:22:54.755Z,42.20
2019-02-03T05:23:27.619Z,47.13
2019-02-03T05:24:00.372Z,45.73
2019-02-03T05:24:33.225Z,37.08
2019-02-03T05:25:06.581Z,41.42
2019-02-03T05:25:39.073Z,38.30
2019-02-03T05:26:11.574Z,46.23
2019-02-03T05:26:44.054Z,42.35
2019-02-03T05:27:16.525Z,46.75
2019-02-03T05:27:49.023Z,44.77
2019-02-03T05:28:21.795Z,45.80
2019-02-03T05:28:54.902Z,46.08
2019-02-03T05:29:27.698Z,44.00
2019-02-03T05:30:00.489Z,49.42
2019-02-03T05:30:33.754Z,45.10
2019-02-03T05:31:06.729Z,43.50
2019-02-03T05:31:39.215Z,48.73
2019-02-03T05:32:12.097Z,46.18
2019-02-03T05:32:44.605Z,47.33
2019-02-03T05:33:17.731Z,49.90
2019-02-03T05:33:50.202Z,49.48
2019-02-03T05:34:22.690Z,50.15
2019-02-03T05:34:55.175Z,49.88
2019-02-03T05:35:27.969Z,52.85
2019-02-03T05:36:00.640Z,49.13
2019-02-03T05:36:33.116Z,54.18
2019-02-03T05:37:05.607Z,42.60
2019-02-03T05:37:38.078Z,48.73
2019-02-03T05:38:10.584Z,47.78
2019-02-03T05:38:43.079Z,48.78
2019-02-03T05:39:24.460Z,56.35
2019-02-03T05:39:49.868Z,49.65
2019-02-03T05:40:23.061Z,48.20
2019-02-03T05:40:55.532Z,49.42
2019-02-03T05:41:28.427Z,47.25
2019-02-03T05:42:01.186Z,45.05
2019-02-03T05:42:33.978Z,43.30
2019-02-03T05:43:06.846Z,51.73
2019-02-03T05:43:39.722Z,46.53
2019-02-03T05:44:12.201Z,48.23
2019-02-03T05:44:44.700Z,51.73
2019-02-03T05:45:18.456Z,46.18
2019-02-03T05:45:50.918Z,51.83
2019-02-03T05:46:23.399Z,41.37
2019-02-03T05:46:56.247Z,47.13
2019-02-03T05:47:28.735Z,52.93
2019-02-03T05:48:01.486Z,48.70
2019-02-03T05:48:34.342Z,55.12
2019-02-03T05:49:06.838Z,43.40
2019-02-03T05:49:39.315Z,57.38
2019-02-03T05:50:13.472Z,45.58
2019-02-03T05:50:45.962Z,46.28
2019-02-03T05:51:18.805Z,54.50
2019-02-03T05:51:51.588Z,50.70
2019-02-03T05:52:24.394Z,45.03
2019-02-03T05:52:56.880Z,55.85
2019-02-03T05:53:29.375Z,49.13
2019-02-03T05:54:02.151Z,51.88
2019-02-03T05:54:34.619Z,52.17
2019-02-03T05:55:07.821Z,46.88
2019-02-03T05:55:40.865Z,45.23
2019-02-03T05:56:14.020Z,44.00
2019-02-03T05:56:46.538Z,53.75
2019-02-03T05:57:19.613Z,43.00
2019-02-03T05:57:52.462Z,55.28
2019-02-03T05:58:25.616Z,47.23
2019-02-03T05:58:58.444Z,54.67
2019-02-03T05:59:31.219Z,50.45
2019-02-03T06:00:05.738Z,44.20
2019-02-03T06:00:40.291Z,47.30
2019-02-03T06:01:12.765Z,51.70
2019-02-03T06:01:45.236Z,50.28
2019-02-03T06:02:18.268Z,47.98
2019-02-03T06:02:51.052Z,45.20
2019-02-03T06:03:23.571Z,54.30
2019-02-03T06:03:56.174Z,51.18
2019-02-03T06:04:28.666Z,49.93
2019-02-03T06:05:01.136Z,49.15
2019-02-03T06:05:33.634Z,48.02
2019-02-03T06:06:06.114Z,51.00
2019-02-03T06:06:38.881Z,47.45
2019-02-03T06:07:11.797Z,47.45
2019-02-03T06:07:44.281Z,48.15
2019-02-03T06:08:16.767Z,45.92
2019-02-03T06:08:49.488Z,48.68
2019-02-03T06:09:21.966Z,42.53
2019-02-03T06:09:54.867Z,49.67
2019-02-03T06:10:27.733Z,58.00
2019-02-03T06:11:00.533Z,53.33
2019-02-03T06:11:33.386Z,58.28
2019-02-03T06:12:05.866Z,50.70
2019-02-03T06:12:38.471Z,58.23
2019-02-03T06:13:10.956Z,54.93
2019-02-03T06:13:44.159Z,61.28
2019-02-03T06:14:16.668Z,53.10
2019-02-03T06:14:49.174Z,53.17
2019-02-03T06:15:21.999Z,47.65
2019-02-03T06:15:54.490Z,49.75
2019-02-03T06:16:27.403Z,62.50
2019-02-03T06:17:00.200Z,43.65
2019-02-03T06:17:32.678Z,51.45
2019-02-03T06:18:05.262Z,57.65
2019-02-03T06:18:37.782Z,56.77
2019-02-03T06:19:10.309Z,50.28
2019-02-03T06:19:42.823Z,54.77
2019-02-03T06:20:15.527Z,52.53
2019-02-03T06:20:48.032Z,63.13
2019-02-03T06:21:21.419Z,57.53
2019-02-03T06:21:54.557Z,54.65
2019-02-03T06:22:27.355Z,63.00
2019-02-03T06:22:59.822Z,55.95
2019-02-03T06:23:32.288Z,61.80
2019-02-03T06:24:04.767Z,48.55
2019-02-03T06:24:37.639Z,54.75
2019-02-03T06:25:10.313Z,55.33
2019-02-03T06:25:42.842Z,58.75
2019-02-03T06:26:15.721Z,59.25
2019-02-03T06:26:48.484Z,65.80
2019-02-03T06:27:21.007Z,64.62
2019-02-03T06:27:53.499Z,61.75
2019-02-03T06:28:25.997Z,71.62
2019-02-03T06:28:58.475Z,57.05
2019-02-03T06:29:30.958Z,53.95
2019-02-03T06:30:06.938Z,54.83
2019-02-03T06:31:07.122Z,53.87
2019-02-03T06:31:39.624Z,52.80
2019-02-03T06:32:12.772Z,53.65
2019-02-03T06:32:45.556Z,51.73
2019-02-03T06:33:18.036Z,52.40
2019-02-03T06:33:52.798Z,54.33
2019-02-03T06:34:25.609Z,54.95
2019-02-03T06:34:58.455Z,52.43
2019-02-03T06:35:30.927Z,61.95
2019-02-03T06:36:04.677Z,49.75
2019-02-03T06:36:37.234Z,55.10
2019-02-03T06:37:09.820Z,64.07
2019-02-03T06:37:42.685Z,58.30
2019-02-03T06:38:15.209Z,54.30
2019-02-03T06:38:48.177Z,51.23
2019-02-03T06:39:21.033Z,55.08
2019-02-03T06:39:54.119Z,50.05
2019-02-03T06:40:26.614Z,47.62
2019-02-03T06:40:59.106Z,50.55
2019-02-03T06:41:31.871Z,50.90
2019-02-03T06:42:04.379Z,52.83
2019-02-03T06:42:37.240Z,57.25
2019-02-03T06:43:09.714Z,57.88
2019-02-03T06:43:42.186Z,63.23
2019-02-03T06:44:14.708Z,57.62
2019-02-03T06:44:47.803Z,57.48
2019-02-03T06:45:28.836Z,47.45
2019-02-03T06:46:14.772Z,56.05
2019-02-03T06:46:55.990Z,50.05
2019-02-03T06:47:28.504Z,59.70
2019-02-03T06:48:01.306Z,48.42
2019-02-03T06:48:33.786Z,52.48
2019-02-03T06:49:09.781Z,57.23
2019-02-03T06:49:42.986Z,55.20
2019-02-03T06:50:15.475Z,46.83
2019-02-03T06:50:48.318Z,49.25
2019-02-03T06:51:20.800Z,58.90
2019-02-03T06:51:53.568Z,46.28
2019-02-03T06:52:26.049Z,48.25
2019-02-03T06:52:58.841Z,63.80
2019-02-03T06:53:31.328Z,60.60
2019-02-03T06:54:03.932Z,55.95
2019-02-03T06:54:36.816Z,53.80
2019-02-03T06:55:09.317Z,53.58
2019-02-03T06:55:42.131Z,57.10
2019-02-03T06:56:14.615Z,59.35
2019-02-03T06:56:47.130Z,50.73
2019-02-03T06:57:19.748Z,58.73
2019-02-03T06:57:52.546Z,58.00
2019-02-03T06:58:25.344Z,60.43
2019-02-03T06:58:58.223Z,66.87
2019-02-03T06:59:30.706Z,67.17
2019-02-03T07:00:04.971Z,57.60
2019-02-03T07:00:37.536Z,59.93
2019-02-03T07:01:10.025Z,52.65
2019-02-03T07:01:42.640Z,57.38
2019-02-03T07:02:15.108Z,61.40
2019-02-03T07:02:47.603Z,54.10
2019-02-03T07:03:20.581Z,64.85
2019-02-03T07:03:53.090Z,53.60